Portada
METAR-TAF:

METAR-TAF

Aeroports :

Base aèria Cameri

Novara, Itàlia

latitud: 45-31N, longitud: 008-40E, altitud: 178 m

METAR: manca

Hora: 01:08 (23:08 UTC)

Pronòstic

L'informe es va fer fa 30 hores i 8 minuts, a les 17:00 UTC
Pronòstic vàlid del 23 a les 18 UTC al 24 a les 03 UTC
Vent 5 kt del Sud-Oest
Visibilitat 10 km o més
Núvols disperses a una alçada de 2000 ft
Núvols disperses a una alçada de 3000 ft
Probabilitat 40% :
Temporalment
l' 23 a les 18 UTC al 23 a les 22 UTC
Visibilitat: 5000 m
Escasses núvols a una alçada de 2000 ft, Cumulonimbus.
Núvols disperses a una alçada de 3000 ft
xàfecs de pluja

TAF: LIMN 231700Z 2318/2403 22005KT 9999 SCT020 SCT030 PROB40 TEMPO 2318/2322 5000 SHRA FEW020CB SCT030

Observacions i pronòstics meteorològics de més de 4000 aeroports (METAR i TAF).

Les estacions disponibles són els punts grocs i vermells al mapa.

Posi el ratolí al punt desitjat per veure el nom de l'estació.

Feu clic per veure les observacions i els pronòstics meteorològics.

Per canviar el mapa: feu clic els botons verds amb una creu de color negre per apropar; al botó verd amb un guió per allunyar la imatge; o en les fletxes verdes per a mapes adjacents.


METAR-TAF: